sensor_id;sensor_type;location;lat;lon;timestamp;P1;durP1;ratioP1;P2;durP2;ratioP2
59486;SDS011;45298;54.918;73.504;2023-05-21T00:00:15;21.30;;;11.35;;
59486;SDS011;45298;54.918;73.504;2023-05-21T00:02:44;20.10;;;10.77;;
59486;SDS011;45298;54.918;73.504;2023-05-21T00:05:13;20.02;;;10.32;;
59486;SDS011;45298;54.918;73.504;2023-05-21T00:07:45;21.30;;;10.57;;
59486;SDS011;45298;54.918;73.504;2023-05-21T00:10:15;34.05;;;10.60;;
59486;SDS011;45298;54.918;73.504;2023-05-21T00:12:44;22.08;;;9.48;;
59486;SDS011;45298;54.918;73.504;2023-05-21T00:15:13;30.20;;;9.40;;
59486;SDS011;45298;54.918;73.504;2023-05-21T00:17:41;21.80;;;10.07;;
59486;SDS011;45298;54.918;73.504;2023-05-21T00:20:11;21.85;;;9.20;;
59486;SDS011;45298;54.918;73.504;2023-05-21T00:22:40;22.20;;;8.95;;
59486;SDS011;45298;54.918;73.504;2023-05-21T00:25:09;18.75;;;9.48;;
59486;SDS011;45298;54.918;73.504;2023-05-21T00:27:39;23.95;;;9.00;;
59486;SDS011;45298;54.918;73.504;2023-05-21T00:30:08;17.55;;;8.77;;
59486;SDS011;45298;54.918;73.504;2023-05-21T00:32:37;17.90;;;9.57;;
59486;SDS011;45298;54.918;73.504;2023-05-21T00:35:06;18.25;;;9.25;;
59486;SDS011;45298;54.918;73.504;2023-05-21T00:37:36;20.23;;;9.32;;
59486;SDS011;45298;54.918;73.504;2023-05-21T00:40:05;17.55;;;8.60;;
59486;SDS011;45298;54.918;73.504;2023-05-21T00:42:36;15.63;;;8.55;;
59486;SDS011;45298;54.918;73.504;2023-05-21T00:45:07;19.67;;;8.75;;
59486;SDS011;45298;54.918;73.504;2023-05-21T00:47:36;16.50;;;8.55;;
59486;SDS011;45298;54.918;73.504;2023-05-21T00:50:06;18.50;;;8.55;;
59486;SDS011;45298;54.918;73.504;2023-05-21T00:52:36;17.60;;;7.93;;
59486;SDS011;45298;54.918;73.504;2023-05-21T00:55:08;16.10;;;8.38;;
59486;SDS011;45298;54.918;73.504;2023-05-21T00:57:38;18.02;;;8.63;;
59486;SDS011;45298;54.918;73.504;2023-05-21T01:00:07;17.80;;;8.13;;
59486;SDS011;45298;54.918;73.504;2023-05-21T01:02:37;18.63;;;8.20;;
59486;SDS011;45298;54.918;73.504;2023-05-21T01:05:07;19.63;;;8.15;;
59486;SDS011;45298;54.918;73.504;2023-05-21T01:07:37;13.80;;;7.88;;
59486;SDS011;45298;54.918;73.504;2023-05-21T01:10:08;14.20;;;8.13;;
59486;SDS011;45298;54.918;73.504;2023-05-21T01:12:40;18.10;;;8.85;;
59486;SDS011;45298;54.918;73.504;2023-05-21T01:15:12;16.77;;;8.35;;
59486;SDS011;45298;54.918;73.504;2023-05-21T01:17:41;22.35;;;8.27;;
59486;SDS011;45298;54.918;73.504;2023-05-21T01:20:13;16.83;;;8.38;;
59486;SDS011;45298;54.918;73.504;2023-05-21T01:25:19;19.08;;;9.70;;
59486;SDS011;45298;54.918;73.504;2023-05-21T01:27:48;17.75;;;9.35;;
59486;SDS011;45298;54.918;73.504;2023-05-21T01:30:19;22.58;;;9.90;;
59486;SDS011;45298;54.918;73.504;2023-05-21T01:36:17;22.15;;;9.63;;
59486;SDS011;45298;54.918;73.504;2023-05-21T01:41:31;17.85;;;9.10;;
59486;SDS011;45298;54.918;73.504;2023-05-21T01:44:04;18.10;;;9.48;;
59486;SDS011;45298;54.918;73.504;2023-05-21T01:46:34;19.15;;;9.50;;
59486;SDS011;45298;54.918;73.504;2023-05-21T01:49:05;17.75;;;10.05;;
59486;SDS011;45298;54.918;73.504;2023-05-21T01:51:35;20.45;;;9.27;;
59486;SDS011;45298;54.918;73.504;2023-05-21T01:54:05;18.60;;;9.35;;
59486;SDS011;45298;54.918;73.504;2023-05-21T01:56:33;24.75;;;9.40;;
59486;SDS011;45298;54.918;73.504;2023-05-21T01:59:03;20.63;;;10.00;;
59486;SDS011;45298;54.918;73.504;2023-05-21T02:01:32;30.08;;;12.88;;
59486;SDS011;45298;54.918;73.504;2023-05-21T02:04:01;26.90;;;12.93;;
59486;SDS011;45298;54.918;73.504;2023-05-21T02:06:31;21.25;;;10.93;;
59486;SDS011;45298;54.918;73.504;2023-05-21T02:09:00;24.25;;;13.02;;
59486;SDS011;45298;54.918;73.504;2023-05-21T02:11:30;27.15;;;14.82;;
59486;SDS011;45298;54.918;73.504;2023-05-21T02:13:59;38.53;;;21.63;;
59486;SDS011;45298;54.918;73.504;2023-05-21T02:16:29;18.08;;;10.90;;
59486;SDS011;45298;54.918;73.504;2023-05-21T02:18:58;18.85;;;9.80;;
59486;SDS011;45298;54.918;73.504;2023-05-21T02:21:27;20.23;;;10.00;;
59486;SDS011;45298;54.918;73.504;2023-05-21T02:23:56;17.10;;;9.57;;
59486;SDS011;45298;54.918;73.504;2023-05-21T02:26:25;21.60;;;9.05;;
59486;SDS011;45298;54.918;73.504;2023-05-21T02:28:54;16.50;;;9.02;;
59486;SDS011;45298;54.918;73.504;2023-05-21T02:31:23;19.30;;;9.27;;
59486;SDS011;45298;54.918;73.504;2023-05-21T02:33:52;17.25;;;9.07;;
59486;SDS011;45298;54.918;73.504;2023-05-21T02:36:21;21.77;;;9.73;;
59486;SDS011;45298;54.918;73.504;2023-05-21T02:38:52;18.05;;;9.18;;
59486;SDS011;45298;54.918;73.504;2023-05-21T02:41:21;16.45;;;8.63;;
59486;SDS011;45298;54.918;73.504;2023-05-21T02:43:50;16.25;;;9.10;;
59486;SDS011;45298;54.918;73.504;2023-05-21T02:46:19;18.92;;;8.90;;
59486;SDS011;45298;54.918;73.504;2023-05-21T02:48:48;17.42;;;8.70;;
59486;SDS011;45298;54.918;73.504;2023-05-21T02:51:17;15.38;;;7.72;;
59486;SDS011;45298;54.918;73.504;2023-05-21T02:53:46;16.17;;;8.15;;
59486;SDS011;45298;54.918;73.504;2023-05-21T02:56:16;17.48;;;8.70;;
59486;SDS011;45298;54.918;73.504;2023-05-21T02:58:46;14.15;;;8.25;;
59486;SDS011;45298;54.918;73.504;2023-05-21T03:01:15;14.07;;;7.70;;
59486;SDS011;45298;54.918;73.504;2023-05-21T03:03:44;18.15;;;7.40;;
59486;SDS011;45298;54.918;73.504;2023-05-21T03:06:13;14.48;;;8.20;;
59486;SDS011;45298;54.918;73.504;2023-05-21T03:08:43;12.35;;;7.80;;
59486;SDS011;45298;54.918;73.504;2023-05-21T03:11:12;15.20;;;7.63;;
59486;SDS011;45298;54.918;73.504;2023-05-21T03:13:41;12.98;;;8.02;;
59486;SDS011;45298;54.918;73.504;2023-05-21T03:16:10;16.02;;;7.85;;
59486;SDS011;45298;54.918;73.504;2023-05-21T03:18:39;13.35;;;8.00;;
59486;SDS011;45298;54.918;73.504;2023-05-21T03:21:08;19.80;;;8.70;;
59486;SDS011;45298;54.918;73.504;2023-05-21T03:23:42;11.13;;;6.85;;
59486;SDS011;45298;54.918;73.504;2023-05-21T03:26:12;11.65;;;6.10;;
59486;SDS011;45298;54.918;73.504;2023-05-21T03:28:41;10.43;;;6.20;;
59486;SDS011;45298;54.918;73.504;2023-05-21T03:31:10;11.02;;;6.20;;
59486;SDS011;45298;54.918;73.504;2023-05-21T03:34:11;13.57;;;6.28;;
59486;SDS011;45298;54.918;73.504;2023-05-21T03:36:40;10.65;;;4.90;;
59486;SDS011;45298;54.918;73.504;2023-05-21T03:39:09;20.70;;;5.38;;
59486;SDS011;45298;54.918;73.504;2023-05-21T03:41:38;8.38;;;5.80;;
59486;SDS011;45298;54.918;73.504;2023-05-21T03:44:12;7.53;;;4.57;;
59486;SDS011;45298;54.918;73.504;2023-05-21T03:46:52;8.98;;;5.13;;
59486;SDS011;45298;54.918;73.504;2023-05-21T03:49:30;9.65;;;5.32;;
59486;SDS011;45298;54.918;73.504;2023-05-21T03:51:59;8.95;;;5.47;;
59486;SDS011;45298;54.918;73.504;2023-05-21T03:54:28;12.70;;;5.60;;
59486;SDS011;45298;54.918;73.504;2023-05-21T03:57:01;6.78;;;4.35;;
59486;SDS011;45298;54.918;73.504;2023-05-21T03:59:32;7.88;;;4.65;;
59486;SDS011;45298;54.918;73.504;2023-05-21T04:02:03;7.32;;;4.97;;
59486;SDS011;45298;54.918;73.504;2023-05-21T04:04:32;9.85;;;4.80;;
59486;SDS011;45298;54.918;73.504;2023-05-21T04:07:01;8.73;;;4.65;;
59486;SDS011;45298;54.918;73.504;2023-05-21T04:09:31;3.85;;;2.70;;
59486;SDS011;45298;54.918;73.504;2023-05-21T04:12:02;7.70;;;3.30;;
59486;SDS011;45298;54.918;73.504;2023-05-21T04:14:31;8.18;;;3.92;;
59486;SDS011;45298;54.918;73.504;2023-05-21T04:17:01;8.00;;;4.30;;
59486;SDS011;45298;54.918;73.504;2023-05-21T04:19:32;9.05;;;3.90;;
59486;SDS011;45298;54.918;73.504;2023-05-21T04:22:02;6.38;;;3.85;;
59486;SDS011;45298;54.918;73.504;2023-05-21T04:24:32;13.23;;;3.72;;
59486;SDS011;45298;54.918;73.504;2023-05-21T04:27:13;5.88;;;3.95;;
59486;SDS011;45298;54.918;73.504;2023-05-21T04:29:44;9.35;;;4.05;;
59486;SDS011;45298;54.918;73.504;2023-05-21T04:32:15;9.25;;;4.15;;
59486;SDS011;45298;54.918;73.504;2023-05-21T04:34:45;13.60;;;3.97;;
59486;SDS011;45298;54.918;73.504;2023-05-21T04:37:14;9.70;;;4.07;;
59486;SDS011;45298;54.918;73.504;2023-05-21T04:39:44;6.80;;;2.97;;
59486;SDS011;45298;54.918;73.504;2023-05-21T04:42:13;4.43;;;3.15;;
59486;SDS011;45298;54.918;73.504;2023-05-21T04:44:42;7.20;;;3.40;;
59486;SDS011;45298;54.918;73.504;2023-05-21T04:47:11;4.50;;;3.20;;
59486;SDS011;45298;54.918;73.504;2023-05-21T04:49:41;4.85;;;3.40;;
59486;SDS011;45298;54.918;73.504;2023-05-21T04:52:11;4.78;;;3.25;;
59486;SDS011;45298;54.918;73.504;2023-05-21T04:54:41;8.18;;;3.22;;
59486;SDS011;45298;54.918;73.504;2023-05-21T04:57:10;8.77;;;3.45;;
59486;SDS011;45298;54.918;73.504;2023-05-21T04:59:39;9.18;;;3.00;;
59486;SDS011;45298;54.918;73.504;2023-05-21T05:02:10;5.78;;;3.20;;
59486;SDS011;45298;54.918;73.504;2023-05-21T05:04:39;6.30;;;3.30;;
59486;SDS011;45298;54.918;73.504;2023-05-21T05:07:08;7.30;;;3.40;;
59486;SDS011;45298;54.918;73.504;2023-05-21T05:09:38;7.75;;;3.33;;
59486;SDS011;45298;54.918;73.504;2023-05-21T05:12:10;31.85;;;10.20;;
59486;SDS011;45298;54.918;73.504;2023-05-21T05:14:39;8.27;;;3.90;;
59486;SDS011;45298;54.918;73.504;2023-05-21T05:17:08;9.38;;;3.70;;
59486;SDS011;45298;54.918;73.504;2023-05-21T05:19:37;11.38;;;3.80;;
59486;SDS011;45298;54.918;73.504;2023-05-21T05:22:07;6.45;;;3.17;;
59486;SDS011;45298;54.918;73.504;2023-05-21T05:24:38;4.32;;;2.90;;
59486;SDS011;45298;54.918;73.504;2023-05-21T05:27:06;4.88;;;3.10;;
59486;SDS011;45298;54.918;73.504;2023-05-21T05:29:35;5.45;;;3.00;;
59486;SDS011;45298;54.918;73.504;2023-05-21T05:32:04;9.02;;;4.13;;
59486;SDS011;45298;54.918;73.504;2023-05-21T05:34:34;7.35;;;4.32;;
59486;SDS011;45298;54.918;73.504;2023-05-21T05:37:04;8.48;;;3.30;;
59486;SDS011;45298;54.918;73.504;2023-05-21T05:39:33;8.88;;;3.30;;
59486;SDS011;45298;54.918;73.504;2023-05-21T05:42:02;11.80;;;5.90;;
59486;SDS011;45298;54.918;73.504;2023-05-21T05:44:31;19.55;;;7.65;;
59486;SDS011;45298;54.918;73.504;2023-05-21T05:47:00;10.38;;;5.85;;
59486;SDS011;45298;54.918;73.504;2023-05-21T05:49:29;14.38;;;6.75;;
59486;SDS011;45298;54.918;73.504;2023-05-21T05:51:59;9.80;;;3.88;;
59486;SDS011;45298;54.918;73.504;2023-05-21T05:54:28;6.65;;;3.50;;
59486;SDS011;45298;54.918;73.504;2023-05-21T05:56:57;5.55;;;3.10;;
59486;SDS011;45298;54.918;73.504;2023-05-21T05:59:26;7.50;;;3.35;;
59486;SDS011;45298;54.918;73.504;2023-05-21T06:01:59;6.00;;;3.35;;
59486;SDS011;45298;54.918;73.504;2023-05-21T06:04:28;7.78;;;4.38;;
59486;SDS011;45298;54.918;73.504;2023-05-21T06:06:57;5.20;;;3.45;;
59486;SDS011;45298;54.918;73.504;2023-05-21T06:09:29;4.57;;;3.08;;
59486;SDS011;45298;54.918;73.504;2023-05-21T06:12:00;8.18;;;3.60;;
59486;SDS011;45298;54.918;73.504;2023-05-21T06:14:29;4.97;;;3.40;;
59486;SDS011;45298;54.918;73.504;2023-05-21T06:16:58;6.80;;;3.80;;
59486;SDS011;45298;54.918;73.504;2023-05-21T06:19:27;5.43;;;3.63;;
59486;SDS011;45298;54.918;73.504;2023-05-21T06:21:56;5.65;;;3.72;;
59486;SDS011;45298;54.918;73.504;2023-05-21T06:24:25;6.53;;;4.13;;
59486;SDS011;45298;54.918;73.504;2023-05-21T06:26:55;9.43;;;4.47;;
59486;SDS011;45298;54.918;73.504;2023-05-21T06:29:24;11.70;;;6.13;;
59486;SDS011;45298;54.918;73.504;2023-05-21T06:31:53;5.72;;;3.42;;
59486;SDS011;45298;54.918;73.504;2023-05-21T06:34:22;6.80;;;4.30;;
59486;SDS011;45298;54.918;73.504;2023-05-21T06:36:52;18.20;;;7.82;;
59486;SDS011;45298;54.918;73.504;2023-05-21T06:39:25;6.60;;;4.00;;
59486;SDS011;45298;54.918;73.504;2023-05-21T06:41:55;10.60;;;6.22;;
59486;SDS011;45298;54.918;73.504;2023-05-21T06:44:42;11.00;;;5.70;;
59486;SDS011;45298;54.918;73.504;2023-05-21T06:47:35;6.82;;;3.60;;
59486;SDS011;45298;54.918;73.504;2023-05-21T06:50:04;8.75;;;3.88;;
59486;SDS011;45298;54.918;73.504;2023-05-21T06:52:33;5.63;;;3.47;;
59486;SDS011;45298;54.918;73.504;2023-05-21T06:55:03;5.43;;;3.90;;
59486;SDS011;45298;54.918;73.504;2023-05-21T06:57:52;7.65;;;4.72;;
59486;SDS011;45298;54.918;73.504;2023-05-21T07:00:21;8.68;;;3.60;;
59486;SDS011;45298;54.918;73.504;2023-05-21T07:02:50;7.55;;;4.18;;
59486;SDS011;45298;54.918;73.504;2023-05-21T07:05:19;6.90;;;3.40;;
59486;SDS011;45298;54.918;73.504;2023-05-21T07:07:48;6.55;;;3.13;;
59486;SDS011;45298;54.918;73.504;2023-05-21T07:10:18;8.65;;;3.78;;
59486;SDS011;45298;54.918;73.504;2023-05-21T07:12:47;4.55;;;2.95;;
59486;SDS011;45298;54.918;73.504;2023-05-21T07:15:16;4.50;;;3.10;;
59486;SDS011;45298;54.918;73.504;2023-05-21T07:17:48;4.30;;;3.10;;
59486;SDS011;45298;54.918;73.504;2023-05-21T07:20:17;6.72;;;4.07;;
59486;SDS011;45298;54.918;73.504;2023-05-21T07:22:49;4.95;;;3.30;;
59486;SDS011;45298;54.918;73.504;2023-05-21T07:25:18;6.20;;;3.72;;
59486;SDS011;45298;54.918;73.504;2023-05-21T07:27:47;10.43;;;3.45;;
59486;SDS011;45298;54.918;73.504;2023-05-21T07:30:16;6.30;;;3.20;;
59486;SDS011;45298;54.918;73.504;2023-05-21T07:32:46;4.70;;;3.50;;
59486;SDS011;45298;54.918;73.504;2023-05-21T07:35:15;6.25;;;3.50;;
59486;SDS011;45298;54.918;73.504;2023-05-21T07:37:44;9.48;;;4.07;;
59486;SDS011;45298;54.918;73.504;2023-05-21T07:40:14;14.32;;;6.85;;
59486;SDS011;45298;54.918;73.504;2023-05-21T07:42:43;21.58;;;7.55;;
59486;SDS011;45298;54.918;73.504;2023-05-21T07:45:17;13.77;;;4.32;;
59486;SDS011;45298;54.918;73.504;2023-05-21T07:47:46;18.63;;;4.93;;
59486;SDS011;45298;54.918;73.504;2023-05-21T07:50:15;24.75;;;6.55;;
59486;SDS011;45298;54.918;73.504;2023-05-21T07:52:44;12.52;;;4.72;;
59486;SDS011;45298;54.918;73.504;2023-05-21T07:55:14;14.10;;;4.93;;
59486;SDS011;45298;54.918;73.504;2023-05-21T07:57:43;10.10;;;3.95;;
59486;SDS011;45298;54.918;73.504;2023-05-21T08:00:15;10.45;;;4.10;;
59486;SDS011;45298;54.918;73.504;2023-05-21T08:02:51;12.93;;;5.45;;
59486;SDS011;45298;54.918;73.504;2023-05-21T08:05:20;9.50;;;3.67;;
59486;SDS011;45298;54.918;73.504;2023-05-21T08:07:50;11.73;;;3.97;;
59486;SDS011;45298;54.918;73.504;2023-05-21T08:10:20;6.10;;;3.70;;
59486;SDS011;45298;54.918;73.504;2023-05-21T08:12:51;6.15;;;3.60;;
59486;SDS011;45298;54.918;73.504;2023-05-21T08:15:20;5.30;;;3.30;;
59486;SDS011;45298;54.918;73.504;2023-05-21T08:17:49;10.23;;;4.32;;
59486;SDS011;45298;54.918;73.504;2023-05-21T08:20:18;5.30;;;3.35;;
59486;SDS011;45298;54.918;73.504;2023-05-21T08:22:49;10.30;;;3.85;;
59486;SDS011;45298;54.918;73.504;2023-05-21T08:25:18;9.45;;;3.90;;
59486;SDS011;45298;54.918;73.504;2023-05-21T08:27:47;15.05;;;4.20;;
59486;SDS011;45298;54.918;73.504;2023-05-21T08:30:19;7.55;;;4.00;;
59486;SDS011;45298;54.918;73.504;2023-05-21T08:32:48;4.22;;;3.35;;
59486;SDS011;45298;54.918;73.504;2023-05-21T08:35:18;5.15;;;3.40;;
59486;SDS011;45298;54.918;73.504;2023-05-21T08:37:56;5.35;;;3.20;;
59486;SDS011;45298;54.918;73.504;2023-05-21T08:40:41;4.82;;;3.28;;
59486;SDS011;45298;54.918;73.504;2023-05-21T08:43:11;8.15;;;3.47;;
59486;SDS011;45298;54.918;73.504;2023-05-21T08:45:46;12.32;;;4.32;;
59486;SDS011;45298;54.918;73.504;2023-05-21T08:48:25;13.07;;;3.72;;
59486;SDS011;45298;54.918;73.504;2023-05-21T08:50:55;9.60;;;3.83;;
59486;SDS011;45298;54.918;73.504;2023-05-21T08:53:33;13.10;;;4.75;;
59486;SDS011;45298;54.918;73.504;2023-05-21T08:56:06;11.48;;;4.00;;
59486;SDS011;45298;54.918;73.504;2023-05-21T08:58:48;7.72;;;3.38;;
59486;SDS011;45298;54.918;73.504;2023-05-21T09:01:21;7.70;;;3.60;;
59486;SDS011;45298;54.918;73.504;2023-05-21T09:04:05;11.10;;;3.78;;
59486;SDS011;45298;54.918;73.504;2023-05-21T09:06:51;7.70;;;3.30;;
59486;SDS011;45298;54.918;73.504;2023-05-21T09:09:38;9.77;;;3.60;;
59486;SDS011;45298;54.918;73.504;2023-05-21T09:12:14;7.03;;;3.05;;
59486;SDS011;45298;54.918;73.504;2023-05-21T09:14:44;5.00;;;3.00;;
59486;SDS011;45298;54.918;73.504;2023-05-21T09:17:18;4.30;;;3.05;;
59486;SDS011;45298;54.918;73.504;2023-05-21T09:20:06;7.72;;;3.60;;
59486;SDS011;45298;54.918;73.504;2023-05-21T09:22:46;15.25;;;5.43;;
59486;SDS011;45298;54.918;73.504;2023-05-21T09:25:22;9.45;;;4.72;;
59486;SDS011;45298;54.918;73.504;2023-05-21T09:27:59;7.15;;;3.53;;
59486;SDS011;45298;54.918;73.504;2023-05-21T09:30:28;8.30;;;3.22;;
59486;SDS011;45298;54.918;73.504;2023-05-21T09:33:01;6.93;;;3.13;;
59486;SDS011;45298;54.918;73.504;2023-05-21T09:35:34;9.13;;;3.30;;
59486;SDS011;45298;54.918;73.504;2023-05-21T09:38:07;6.05;;;3.03;;
59486;SDS011;45298;54.918;73.504;2023-05-21T09:40:37;7.22;;;3.38;;
59486;SDS011;45298;54.918;73.504;2023-05-21T09:43:14;6.57;;;4.00;;
59486;SDS011;45298;54.918;73.504;2023-05-21T09:45:50;6.18;;;3.60;;
59486;SDS011;45298;54.918;73.504;2023-05-21T09:48:32;7.10;;;3.53;;
59486;SDS011;45298;54.918;73.504;2023-05-21T09:51:06;6.72;;;3.17;;
59486;SDS011;45298;54.918;73.504;2023-05-21T09:56:26;4.57;;;3.17;;
59486;SDS011;45298;54.918;73.504;2023-05-21T09:59:00;4.25;;;3.40;;
59486;SDS011;45298;54.918;73.504;2023-05-21T10:01:34;11.02;;;3.60;;
59486;SDS011;45298;54.918;73.504;2023-05-21T10:04:07;19.00;;;4.18;;
59486;SDS011;45298;54.918;73.504;2023-05-21T10:06:41;7.15;;;3.65;;
59486;SDS011;45298;54.918;73.504;2023-05-21T10:09:12;15.02;;;3.92;;
59486;SDS011;45298;54.918;73.504;2023-05-21T10:11:46;14.95;;;3.70;;
59486;SDS011;45298;54.918;73.504;2023-05-21T10:14:20;9.38;;;3.85;;
59486;SDS011;45298;54.918;73.504;2023-05-21T10:16:55;5.28;;;3.20;;
59486;SDS011;45298;54.918;73.504;2023-05-21T10:19:25;11.45;;;5.10;;
59486;SDS011;45298;54.918;73.504;2023-05-21T10:21:59;7.38;;;3.22;;
59486;SDS011;45298;54.918;73.504;2023-05-21T10:24:28;4.45;;;3.00;;
59486;SDS011;45298;54.918;73.504;2023-05-21T10:26:59;5.85;;;2.90;;
59486;SDS011;45298;54.918;73.504;2023-05-21T10:29:31;7.53;;;3.38;;
59486;SDS011;45298;54.918;73.504;2023-05-21T10:32:02;8.15;;;3.50;;
59486;SDS011;45298;54.918;73.504;2023-05-21T10:34:33;7.60;;;3.10;;
59486;SDS011;45298;54.918;73.504;2023-05-21T10:37:03;5.85;;;2.88;;
59486;SDS011;45298;54.918;73.504;2023-05-21T10:39:36;12.52;;;3.30;;
59486;SDS011;45298;54.918;73.504;2023-05-21T10:48:10;15.73;;;10.65;;
59486;SDS011;45298;54.918;73.504;2023-05-21T10:53:57;21.75;;;10.55;;
59486;SDS011;45298;54.918;73.504;2023-05-21T10:59:29;20.02;;;10.10;;
59486;SDS011;45298;54.918;73.504;2023-05-21T11:02:34;11.07;;;4.47;;
59486;SDS011;45298;54.918;73.504;2023-05-21T11:05:04;41.95;;;28.05;;
59486;SDS011;45298;54.918;73.504;2023-05-21T11:07:49;16.90;;;7.60;;
59486;SDS011;45298;54.918;73.504;2023-05-21T11:21:05;5.45;;;3.42;;
59486;SDS011;45298;54.918;73.504;2023-05-21T11:26:21;31.60;;;12.80;;
59486;SDS011;45298;54.918;73.504;2023-05-21T11:31:34;9.75;;;3.60;;
59486;SDS011;45298;54.918;73.504;2023-05-21T11:36:37;8.40;;;5.15;;
59486;SDS011;45298;54.918;73.504;2023-05-21T11:39:18;5.10;;;2.92;;
59486;SDS011;45298;54.918;73.504;2023-05-21T11:41:58;8.40;;;6.43;;
59486;SDS011;45298;54.918;73.504;2023-05-21T11:47:10;6.50;;;3.33;;
59486;SDS011;45298;54.918;73.504;2023-05-21T11:49:41;8.75;;;5.18;;
59486;SDS011;45298;54.918;73.504;2023-05-21T11:52:11;21.92;;;14.68;;
59486;SDS011;45298;54.918;73.504;2023-05-21T11:54:43;7.75;;;3.60;;
59486;SDS011;45298;54.918;73.504;2023-05-21T11:57:18;20.42;;;8.45;;
59486;SDS011;45298;54.918;73.504;2023-05-21T11:59:48;18.05;;;4.43;;
59486;SDS011;45298;54.918;73.504;2023-05-21T12:02:21;20.20;;;5.78;;
59486;SDS011;45298;54.918;73.504;2023-05-21T12:04:50;19.10;;;4.45;;
59486;SDS011;45298;54.918;73.504;2023-05-21T12:07:19;11.15;;;3.80;;
59486;SDS011;45298;54.918;73.504;2023-05-21T12:09:49;7.40;;;4.57;;
59486;SDS011;45298;54.918;73.504;2023-05-21T12:12:20;5.63;;;3.45;;
59486;SDS011;45298;54.918;73.504;2023-05-21T12:14:51;7.05;;;3.28;;
59486;SDS011;45298;54.918;73.504;2023-05-21T12:17:22;7.90;;;4.97;;
59486;SDS011;45298;54.918;73.504;2023-05-21T12:19:55;7.25;;;3.28;;
59486;SDS011;45298;54.918;73.504;2023-05-21T12:22:24;11.70;;;4.50;;
59486;SDS011;45298;54.918;73.504;2023-05-21T12:24:55;19.13;;;8.75;;
59486;SDS011;45298;54.918;73.504;2023-05-21T12:27:25;7.32;;;3.88;;
59486;SDS011;45298;54.918;73.504;2023-05-21T12:29:55;15.52;;;4.97;;
59486;SDS011;45298;54.918;73.504;2023-05-21T12:32:26;24.98;;;8.55;;
59486;SDS011;45298;54.918;73.504;2023-05-21T12:34:56;21.92;;;11.93;;
59486;SDS011;45298;54.918;73.504;2023-05-21T12:37:28;22.20;;;4.00;;
59486;SDS011;45298;54.918;73.504;2023-05-21T12:40:02;9.23;;;3.40;;
59486;SDS011;45298;54.918;73.504;2023-05-21T12:42:32;7.07;;;3.53;;
59486;SDS011;45298;54.918;73.504;2023-05-21T12:45:05;7.68;;;4.00;;
59486;SDS011;45298;54.918;73.504;2023-05-21T12:47:35;8.88;;;4.00;;
59486;SDS011;45298;54.918;73.504;2023-05-21T12:50:08;14.60;;;3.65;;
59486;SDS011;45298;54.918;73.504;2023-05-21T12:52:41;9.75;;;4.00;;
59486;SDS011;45298;54.918;73.504;2023-05-21T12:55:14;10.98;;;3.90;;
59486;SDS011;45298;54.918;73.504;2023-05-21T12:57:47;26.42;;;13.35;;
59486;SDS011;45298;54.918;73.504;2023-05-21T13:00:21;13.40;;;5.68;;
59486;SDS011;45298;54.918;73.504;2023-05-21T13:02:51;9.95;;;3.30;;
59486;SDS011;45298;54.918;73.504;2023-05-21T13:05:20;12.65;;;3.85;;
59486;SDS011;45298;54.918;73.504;2023-05-21T13:07:49;17.65;;;4.22;;
59486;SDS011;45298;54.918;73.504;2023-05-21T13:10:18;10.55;;;3.70;;
59486;SDS011;45298;54.918;73.504;2023-05-21T13:12:47;11.73;;;3.97;;
59486;SDS011;45298;54.918;73.504;2023-05-21T13:15:17;7.07;;;3.42;;
59486;SDS011;45298;54.918;73.504;2023-05-21T13:17:46;6.45;;;3.00;;
59486;SDS011;45298;54.918;73.504;2023-05-21T13:20:20;12.18;;;6.18;;
59486;SDS011;45298;54.918;73.504;2023-05-21T13:22:50;14.27;;;5.07;;
59486;SDS011;45298;54.918;73.504;2023-05-21T13:25:21;15.18;;;4.28;;
59486;SDS011;45298;54.918;73.504;2023-05-21T13:27:52;15.60;;;6.80;;
59486;SDS011;45298;54.918;73.504;2023-05-21T13:30:21;22.33;;;8.55;;
59486;SDS011;45298;54.918;73.504;2023-05-21T13:32:50;12.98;;;6.00;;
59486;SDS011;45298;54.918;73.504;2023-05-21T13:35:20;10.77;;;5.55;;
59486;SDS011;45298;54.918;73.504;2023-05-21T13:37:49;13.82;;;3.78;;
59486;SDS011;45298;54.918;73.504;2023-05-21T13:40:18;11.27;;;3.40;;
59486;SDS011;45298;54.918;73.504;2023-05-21T13:42:48;9.77;;;4.00;;
59486;SDS011;45298;54.918;73.504;2023-05-21T13:45:18;13.57;;;4.22;;
59486;SDS011;45298;54.918;73.504;2023-05-21T13:47:48;14.23;;;5.10;;
59486;SDS011;45298;54.918;73.504;2023-05-21T13:50:17;18.25;;;7.45;;
59486;SDS011;45298;54.918;73.504;2023-05-21T13:52:46;31.77;;;15.82;;
59486;SDS011;45298;54.918;73.504;2023-05-21T13:55:15;62.20;;;34.65;;
59486;SDS011;45298;54.918;73.504;2023-05-21T13:57:45;34.47;;;19.38;;
59486;SDS011;45298;54.918;73.504;2023-05-21T14:00:14;155.98;;;96.93;;
59486;SDS011;45298;54.918;73.504;2023-05-21T14:02:43;98.10;;;57.08;;
59486;SDS011;45298;54.918;73.504;2023-05-21T14:05:12;148.07;;;89.32;;
59486;SDS011;45298;54.918;73.504;2023-05-21T14:07:41;209.43;;;138.35;;
59486;SDS011;45298;54.918;73.504;2023-05-21T14:10:10;105.68;;;61.13;;
59486;SDS011;45298;54.918;73.504;2023-05-21T14:12:42;120.72;;;67.70;;
59486;SDS011;45298;54.918;73.504;2023-05-21T14:15:13;218.40;;;141.80;;
59486;SDS011;45298;54.918;73.504;2023-05-21T14:17:44;85.53;;;47.45;;
59486;SDS011;45298;54.918;73.504;2023-05-21T14:20:13;93.38;;;32.00;;
59486;SDS011;45298;54.918;73.504;2023-05-21T14:22:42;127.90;;;26.27;;
59486;SDS011;45298;54.918;73.504;2023-05-21T14:25:11;181.30;;;53.65;;
59486;SDS011;45298;54.918;73.504;2023-05-21T14:27:40;145.57;;;55.00;;
59486;SDS011;45298;54.918;73.504;2023-05-21T14:30:09;183.52;;;92.55;;
59486;SDS011;45298;54.918;73.504;2023-05-21T14:32:39;145.25;;;66.40;;
59486;SDS011;45298;54.918;73.504;2023-05-21T14:35:08;227.50;;;119.75;;
59486;SDS011;45298;54.918;73.504;2023-05-21T14:37:37;130.82;;;68.65;;
59486;SDS011;45298;54.918;73.504;2023-05-21T14:40:06;122.50;;;58.22;;
59486;SDS011;45298;54.918;73.504;2023-05-21T14:42:35;195.43;;;115.72;;
59486;SDS011;45298;54.918;73.504;2023-05-21T14:45:05;277.50;;;179.52;;
59486;SDS011;45298;54.918;73.504;2023-05-21T14:47:45;168.32;;;97.30;;
59486;SDS011;45298;54.918;73.504;2023-05-21T14:50:15;190.95;;;111.70;;
59486;SDS011;45298;54.918;73.504;2023-05-21T14:52:45;180.60;;;78.10;;
59486;SDS011;45298;54.918;73.504;2023-05-21T14:55:14;208.05;;;75.05;;
59486;SDS011;45298;54.918;73.504;2023-05-21T14:57:49;181.60;;;95.13;;
59486;SDS011;45298;54.918;73.504;2023-05-21T15:00:18;150.27;;;75.72;;
59486;SDS011;45298;54.918;73.504;2023-05-21T15:02:48;144.80;;;69.72;;
59486;SDS011;45298;54.918;73.504;2023-05-21T15:05:26;217.25;;;124.05;;
59486;SDS011;45298;54.918;73.504;2023-05-21T15:07:59;321.80;;;213.23;;
59486;SDS011;45298;54.918;73.504;2023-05-21T15:10:28;152.30;;;68.78;;
59486;SDS011;45298;54.918;73.504;2023-05-21T15:12:57;111.45;;;42.88;;
59486;SDS011;45298;54.918;73.504;2023-05-21T15:15:26;141.32;;;70.78;;
59486;SDS011;45298;54.918;73.504;2023-05-21T15:17:55;209.43;;;135.77;;
59486;SDS011;45298;54.918;73.504;2023-05-21T15:20:25;109.22;;;44.60;;
59486;SDS011;45298;54.918;73.504;2023-05-21T15:22:54;179.15;;;94.20;;
59486;SDS011;45298;54.918;73.504;2023-05-21T15:25:43;87.75;;;37.15;;
59486;SDS011;45298;54.918;73.504;2023-05-21T15:28:12;119.03;;;52.22;;
59486;SDS011;45298;54.918;73.504;2023-05-21T15:30:42;126.97;;;50.95;;